createdAt,value
2018-08-17T00:01:05.096Z,16.47
2018-08-17T00:03:33.464Z,18.47
2018-08-17T00:06:01.893Z,18.03
2018-08-17T00:08:30.242Z,18.67
2018-08-17T00:10:58.695Z,19.03
2018-08-17T00:13:27.216Z,19.50
2018-08-17T00:15:55.556Z,21.13
2018-08-17T00:18:23.949Z,21.20
2018-08-17T00:20:52.324Z,19.13
2018-08-17T00:23:20.663Z,18.30
2018-08-17T00:25:49.020Z,21.97
2018-08-17T00:28:17.404Z,19.07
2018-08-17T00:30:46.100Z,18.07
2018-08-17T00:33:14.467Z,20.97
2018-08-17T00:35:42.806Z,17.03
2018-08-17T00:38:11.140Z,15.93
2018-08-17T00:40:39.520Z,18.50
2018-08-17T00:43:07.840Z,18.67
2018-08-17T00:45:36.251Z,19.17
2018-08-17T00:48:04.905Z,18.93
2018-08-17T00:50:33.487Z,21.07
2018-08-17T00:53:01.800Z,21.67
2018-08-17T00:55:30.196Z,17.73
2018-08-17T00:57:58.524Z,21.30
2018-08-17T01:00:26.887Z,18.50
2018-08-17T01:02:55.267Z,20.77
2018-08-17T01:05:23.696Z,22.67
2018-08-17T01:07:52.036Z,18.73
2018-08-17T01:10:20.428Z,20.13
2018-08-17T01:12:48.759Z,18.63
2018-08-17T01:15:17.133Z,20.23
2018-08-17T01:17:45.463Z,21.70
2018-08-17T01:20:13.932Z,20.87
2018-08-17T01:22:42.628Z,21.07
2018-08-17T01:25:10.996Z,20.80
2018-08-17T01:27:39.436Z,18.57
2018-08-17T01:30:08.718Z,22.43
2018-08-17T01:32:37.185Z,22.73
2018-08-17T01:35:05.819Z,24.60
2018-08-17T01:37:34.176Z,25.83
2018-08-17T01:40:02.556Z,21.03
2018-08-17T01:42:30.889Z,22.80
2018-08-17T01:44:59.235Z,24.37
2018-08-17T01:47:27.620Z,23.27
2018-08-17T01:49:56.012Z,26.00
2018-08-17T01:52:24.349Z,24.57
2018-08-17T01:54:52.680Z,25.37
2018-08-17T01:57:21.004Z,24.30
2018-08-17T01:59:49.417Z,23.13
2018-08-17T02:02:17.732Z,23.03
2018-08-17T02:04:46.097Z,23.50
2018-08-17T02:07:16.536Z,23.67
2018-08-17T02:09:44.969Z,20.80
2018-08-17T02:12:13.285Z,22.90
2018-08-17T02:14:41.731Z,25.80
2018-08-17T02:17:10.066Z,23.53
2018-08-17T02:19:38.499Z,24.20
2018-08-17T02:22:06.896Z,24.40
2018-08-17T02:24:35.215Z,24.07
2018-08-17T02:27:03.592Z,21.33
2018-08-17T02:29:31.921Z,22.37
2018-08-17T02:32:00.320Z,23.67
2018-08-17T02:34:28.731Z,23.50
2018-08-17T02:36:57.116Z,24.47
2018-08-17T02:39:25.473Z,20.33
2018-08-17T02:41:53.821Z,23.50
2018-08-17T02:44:22.162Z,23.00
2018-08-17T02:46:50.517Z,23.53
2018-08-17T02:49:18.861Z,23.73
2018-08-17T02:51:47.245Z,22.80
2018-08-17T02:54:15.710Z,25.70
2018-08-17T02:56:44.088Z,19.93
2018-08-17T02:59:12.437Z,20.27
2018-08-17T03:01:40.811Z,21.87
2018-08-17T03:04:09.164Z,20.83
2018-08-17T03:06:37.608Z,20.07
2018-08-17T03:09:07.889Z,24.10
2018-08-17T03:11:36.222Z,23.40
2018-08-17T03:14:05.227Z,21.20
2018-08-17T03:16:33.584Z,22.50
2018-08-17T03:19:02.013Z,20.27
2018-08-17T03:21:30.328Z,22.23
2018-08-17T03:23:58.712Z,22.10
2018-08-17T03:26:27.056Z,20.80
2018-08-17T03:28:55.494Z,24.60
2018-08-17T03:31:23.980Z,21.13
2018-08-17T03:33:52.369Z,19.97
2018-08-17T03:36:20.748Z,24.40
2018-08-17T03:38:49.228Z,22.80
2018-08-17T03:41:17.613Z,26.40
2018-08-17T03:43:45.997Z,22.20
2018-08-17T03:46:14.480Z,25.00
2018-08-17T03:48:42.904Z,27.03
2018-08-17T03:51:11.250Z,24.97
2018-08-17T03:53:39.586Z,29.20
2018-08-17T03:56:07.967Z,25.37
2018-08-17T03:58:36.387Z,27.13
2018-08-17T04:01:04.750Z,26.73
2018-08-17T04:03:33.096Z,30.90
2018-08-17T04:06:01.413Z,25.73
2018-08-17T04:08:29.747Z,24.93
2018-08-17T04:10:58.108Z,25.60
2018-08-17T04:13:26.449Z,25.77
2018-08-17T04:15:54.793Z,23.37
2018-08-17T04:18:23.269Z,26.20
2018-08-17T04:20:51.649Z,25.20
2018-08-17T04:23:19.977Z,26.00
2018-08-17T04:25:48.329Z,22.47
2018-08-17T04:28:16.680Z,28.83
2018-08-17T04:30:45.042Z,26.40
2018-08-17T04:33:13.417Z,24.13
2018-08-17T04:35:41.797Z,23.67
2018-08-17T04:38:10.164Z,30.20
2018-08-17T04:40:38.650Z,26.00
2018-08-17T04:43:07.103Z,29.30
2018-08-17T04:45:35.445Z,23.80
2018-08-17T04:48:03.920Z,25.57
2018-08-17T04:50:32.250Z,28.63
2018-08-17T04:53:00.594Z,29.73
2018-08-17T04:55:28.877Z,30.00
2018-08-17T04:57:57.232Z,25.60
2018-08-17T05:00:25.658Z,22.43
2018-08-17T05:05:28.580Z,28.97
2018-08-17T05:07:56.997Z,28.03
2018-08-17T05:10:25.400Z,29.43
2018-08-17T05:12:53.775Z,30.10
2018-08-17T05:15:22.121Z,26.47
2018-08-17T05:17:50.457Z,26.27
2018-08-17T05:20:18.870Z,26.57
2018-08-17T05:22:47.268Z,31.83
2018-08-17T05:25:15.738Z,36.17
2018-08-17T05:27:44.105Z,36.80
2018-08-17T05:30:12.553Z,35.03
2018-08-17T05:32:41.038Z,35.57
2018-08-17T05:35:09.541Z,40.67
2018-08-17T05:37:38.004Z,37.47
2018-08-17T05:40:07.604Z,34.50
2018-08-17T05:42:36.320Z,37.63
2018-08-17T05:45:05.537Z,35.77
2018-08-17T05:47:33.812Z,32.33
2018-08-17T05:50:02.317Z,43.00
2018-08-17T05:52:30.657Z,41.47
2018-08-17T05:54:59.101Z,47.53
2018-08-17T05:57:27.496Z,36.73
2018-08-17T05:59:56.009Z,32.17
2018-08-17T06:02:24.426Z,34.53
2018-08-17T06:04:52.933Z,37.97
2018-08-17T06:07:21.720Z,33.47
2018-08-17T06:09:50.155Z,36.87
2018-08-17T06:12:18.585Z,38.47
2018-08-17T06:14:47.067Z,36.83
2018-08-17T06:17:15.416Z,39.73
2018-08-17T06:19:43.780Z,38.87
2018-08-17T06:22:16.330Z,36.97
2018-08-17T06:24:44.678Z,37.93
2018-08-17T06:27:13.034Z,31.97
2018-08-17T06:29:41.408Z,33.60
2018-08-17T06:32:10.197Z,39.80
2018-08-17T06:34:39.001Z,31.03
2018-08-17T06:37:07.692Z,32.93
2018-08-17T06:39:36.263Z,36.70
2018-08-17T06:42:04.733Z,35.70
2018-08-17T06:44:33.104Z,38.33
2018-08-17T06:47:01.548Z,32.97
2018-08-17T06:49:29.924Z,37.10
2018-08-17T06:51:58.429Z,36.93
2018-08-17T06:54:26.793Z,31.90
2018-08-17T06:56:55.398Z,35.73
2018-08-17T06:59:23.804Z,32.13
2018-08-17T07:01:52.338Z,28.33
2018-08-17T07:04:20.784Z,29.57
2018-08-17T07:06:49.301Z,30.93
2018-08-17T07:09:17.657Z,26.53
2018-08-17T07:11:46.032Z,24.97
2018-08-17T07:14:14.433Z,26.20
2018-08-17T07:16:43.397Z,23.43
2018-08-17T07:19:11.908Z,22.83
2018-08-17T07:21:40.493Z,24.13
2018-08-17T07:24:08.825Z,23.10
2018-08-17T07:26:37.176Z,20.03
2018-08-17T07:29:05.601Z,22.83
2018-08-17T07:31:33.989Z,22.00
2018-08-17T07:34:02.357Z,17.67
2018-08-17T07:36:30.714Z,20.97
2018-08-17T07:38:59.144Z,19.67
2018-08-17T07:41:27.537Z,18.00
2018-08-17T07:43:55.982Z,15.60
2018-08-17T07:46:24.414Z,17.37
2018-08-17T07:48:52.760Z,19.33
2018-08-17T07:51:21.116Z,18.93
2018-08-17T07:53:49.445Z,17.50
2018-08-17T07:56:17.880Z,16.27
2018-08-17T07:58:46.328Z,15.83
2018-08-17T08:01:14.827Z,14.67
2018-08-17T08:03:45.280Z,13.13
2018-08-17T08:06:13.629Z,12.23
2018-08-17T08:08:42.152Z,11.10
2018-08-17T08:11:10.637Z,10.43
2018-08-17T08:13:38.963Z,10.50
2018-08-17T08:16:07.436Z,12.23
2018-08-17T08:18:35.793Z,9.43
2018-08-17T08:21:04.273Z,8.30
2018-08-17T08:23:32.681Z,9.53
2018-08-17T08:26:01.170Z,7.70
2018-08-17T08:28:29.524Z,9.10
2018-08-17T08:30:58.070Z,7.17
2018-08-17T08:33:26.501Z,6.53
2018-08-17T08:35:54.895Z,5.23
2018-08-17T08:38:23.269Z,3.90
2018-08-17T08:40:51.752Z,5.53
2018-08-17T08:43:20.127Z,5.60
2018-08-17T08:45:48.504Z,5.60
2018-08-17T08:48:16.880Z,4.53
2018-08-17T08:50:45.514Z,6.80
2018-08-17T08:53:14.105Z,4.50
2018-08-17T08:55:42.448Z,3.87
2018-08-17T08:58:11.106Z,4.47
2018-08-17T09:00:39.501Z,5.03
2018-08-17T09:03:08.136Z,5.33
2018-08-17T09:05:36.538Z,4.17
2018-08-17T09:08:05.187Z,4.53
2018-08-17T09:10:33.589Z,4.43
2018-08-17T09:13:02.101Z,4.50
2018-08-17T09:15:30.593Z,5.67
2018-08-17T09:17:59.150Z,4.73
2018-08-17T09:20:27.647Z,5.13
2018-08-17T09:22:55.925Z,6.60
2018-08-17T09:25:24.304Z,5.23
2018-08-17T09:27:52.800Z,6.30
2018-08-17T09:30:21.328Z,5.90
2018-08-17T09:32:49.852Z,6.03
2018-08-17T09:35:18.286Z,5.60
2018-08-17T09:37:46.700Z,5.43
2018-08-17T09:40:15.168Z,4.60
2018-08-17T09:42:43.546Z,7.27
2018-08-17T09:45:13.077Z,5.27
2018-08-17T09:47:41.477Z,3.50
2018-08-17T09:50:12.157Z,3.37
2018-08-17T09:52:40.841Z,3.13
2018-08-17T09:55:09.264Z,3.13
2018-08-17T09:57:37.693Z,2.90
2018-08-17T10:00:07.612Z,3.97
2018-08-17T10:02:41.565Z,3.87
2018-08-17T10:05:15.125Z,4.63
2018-08-17T10:07:49.011Z,3.70
2018-08-17T10:10:17.933Z,4.13
2018-08-17T10:12:47.044Z,3.50
2018-08-17T10:15:15.556Z,3.50
2018-08-17T10:17:43.920Z,4.40
2018-08-17T10:20:14.599Z,4.77
2018-08-17T10:22:43.206Z,4.43
2018-08-17T10:25:16.279Z,5.83
2018-08-17T10:27:46.008Z,5.50
2018-08-17T10:30:14.629Z,8.57
2018-08-17T10:32:48.272Z,4.77
2018-08-17T10:35:21.829Z,5.37
2018-08-17T10:37:50.172Z,3.80
2018-08-17T10:40:18.522Z,3.87
2018-08-17T10:42:47.240Z,5.97
2018-08-17T10:45:15.780Z,7.23
2018-08-17T10:47:44.124Z,5.30
2018-08-17T10:50:19.603Z,5.20
2018-08-17T10:52:55.183Z,3.67
2018-08-17T10:55:26.300Z,3.43
2018-08-17T10:57:54.568Z,5.27
2018-08-17T11:00:23.241Z,5.23
2018-08-17T11:02:51.705Z,4.77
2018-08-17T11:05:20.100Z,5.00
2018-08-17T11:07:49.283Z,5.07
2018-08-17T11:10:17.648Z,5.23
2018-08-17T11:12:47.196Z,4.53
2018-08-17T11:15:15.641Z,4.60
2018-08-17T11:17:44.977Z,4.60
2018-08-17T11:20:14.994Z,4.20
2018-08-17T11:22:43.360Z,6.53
2018-08-17T11:25:11.737Z,4.57
2018-08-17T11:27:40.148Z,4.17
2018-08-17T11:30:11.633Z,3.90
2018-08-17T11:32:40.217Z,9.20
2018-08-17T11:35:08.633Z,4.40
2018-08-17T11:37:36.957Z,6.17
2018-08-17T11:40:06.865Z,5.50
2018-08-17T11:42:45.101Z,4.87
2018-08-17T11:45:15.932Z,5.87
2018-08-17T11:47:44.884Z,5.13
2018-08-17T11:50:15.511Z,5.27
2018-08-17T11:53:00.349Z,5.60
2018-08-17T11:55:31.493Z,5.60
2018-08-17T11:57:59.925Z,4.63
2018-08-17T12:00:32.732Z,7.27
2018-08-17T12:03:01.241Z,8.07
2018-08-17T12:05:29.552Z,5.83
2018-08-17T12:07:57.897Z,6.97
2018-08-17T12:10:26.226Z,5.70
2018-08-17T12:12:55.489Z,6.70
2018-08-17T12:15:23.828Z,6.83
2018-08-17T12:17:52.198Z,5.43
2018-08-17T12:20:20.552Z,5.60
2018-08-17T12:22:48.888Z,4.50
2018-08-17T12:25:17.284Z,4.33
2018-08-17T12:27:52.833Z,4.50
2018-08-17T12:30:21.703Z,4.17
2018-08-17T12:32:50.077Z,4.90
2018-08-17T12:35:18.485Z,3.90
2018-08-17T12:37:46.904Z,4.00
2018-08-17T12:40:15.729Z,3.83
2018-08-17T12:42:44.033Z,4.00
2018-08-17T12:45:17.557Z,3.67
2018-08-17T12:47:45.913Z,4.17
2018-08-17T12:50:14.238Z,4.47
2018-08-17T12:52:42.555Z,3.60
2018-08-17T12:55:10.976Z,4.37
2018-08-17T12:57:41.933Z,4.13
2018-08-17T13:00:11.085Z,4.40
2018-08-17T13:02:39.453Z,4.47
2018-08-17T13:05:07.869Z,4.73
2018-08-17T13:07:36.464Z,8.33
2018-08-17T13:10:05.046Z,4.87
2018-08-17T13:12:33.372Z,4.97
2018-08-17T13:15:01.749Z,5.70
2018-08-17T13:17:35.457Z,6.00
2018-08-17T13:20:03.821Z,5.23
2018-08-17T13:22:32.168Z,5.50
2018-08-17T13:25:00.541Z,6.07
2018-08-17T13:27:31.732Z,5.83
2018-08-17T13:30:00.382Z,6.07
2018-08-17T13:32:29.801Z,5.97
2018-08-17T13:35:02.831Z,22.60
2018-08-17T13:37:31.237Z,8.07
2018-08-17T13:39:59.639Z,11.00
2018-08-17T13:42:28.105Z,8.03
2018-08-17T13:44:56.449Z,8.20
2018-08-17T13:47:24.951Z,9.63
2018-08-17T13:49:53.272Z,8.33
2018-08-17T13:52:21.585Z,10.20
2018-08-17T13:54:49.917Z,9.87
2018-08-17T13:57:18.268Z,10.40
2018-08-17T13:59:46.955Z,9.47
2018-08-17T14:02:15.657Z,8.57
2018-08-17T14:04:43.945Z,8.63
2018-08-17T14:07:12.267Z,9.43
2018-08-17T14:09:40.616Z,8.67
2018-08-17T14:12:09.517Z,9.97
2018-08-17T14:14:37.896Z,8.90
2018-08-17T14:17:06.629Z,8.80
2018-08-17T14:19:35.045Z,10.07
2018-08-17T14:22:03.620Z,8.93
2018-08-17T14:24:32.044Z,10.33
2018-08-17T14:27:00.413Z,9.43
2018-08-17T14:29:28.971Z,10.23
2018-08-17T14:31:57.460Z,9.83
2018-08-17T14:34:25.823Z,8.90
2018-08-17T14:36:54.204Z,9.67
2018-08-17T14:39:22.580Z,7.80
2018-08-17T14:41:58.656Z,8.30
2018-08-17T14:44:27.695Z,8.63
2018-08-17T14:46:56.384Z,8.90
2018-08-17T14:49:25.389Z,9.93
2018-08-17T14:51:53.841Z,9.90
2018-08-17T14:54:22.169Z,9.37
2018-08-17T14:56:50.538Z,8.80
2018-08-17T14:59:18.904Z,11.90
2018-08-17T15:01:47.410Z,9.80
2018-08-17T15:04:15.991Z,11.40
2018-08-17T15:06:44.504Z,10.43
2018-08-17T15:09:14.199Z,10.37
2018-08-17T15:11:43.317Z,9.63
2018-08-17T15:14:12.824Z,8.73
2018-08-17T15:16:41.729Z,8.73
2018-08-17T15:19:10.074Z,7.73
2018-08-17T15:21:38.738Z,6.27
2018-08-17T15:24:07.346Z,8.33
2018-08-17T15:26:35.852Z,7.33
2018-08-17T15:29:04.674Z,5.30
2018-08-17T15:31:33.013Z,8.00
2018-08-17T15:34:01.372Z,7.57
2018-08-17T15:36:29.680Z,9.00
2018-08-17T15:38:58.138Z,7.20
2018-08-17T15:41:26.529Z,6.70
2018-08-17T15:43:54.847Z,6.80
2018-08-17T15:46:23.161Z,7.10
2018-08-17T15:48:53.769Z,8.53
2018-08-17T15:51:22.158Z,7.13
2018-08-17T15:53:50.741Z,10.13
2018-08-17T15:56:19.201Z,7.23
2018-08-17T15:58:47.840Z,8.33
2018-08-17T16:01:16.283Z,8.47
2018-08-17T16:03:44.715Z,7.07
2018-08-17T16:06:13.133Z,7.20
2018-08-17T16:08:41.507Z,9.13
2018-08-17T16:11:10.325Z,7.43
2018-08-17T16:13:38.648Z,6.27
2018-08-17T16:16:07.020Z,12.77
2018-08-17T16:18:35.859Z,7.97
2018-08-17T16:21:04.280Z,5.93
2018-08-17T16:23:32.638Z,8.27
2018-08-17T16:26:00.993Z,8.53
2018-08-17T16:28:29.376Z,7.07
2018-08-17T16:30:57.702Z,6.13
2018-08-17T16:33:26.108Z,7.40
2018-08-17T16:35:54.585Z,7.40
2018-08-17T16:38:22.946Z,12.37
2018-08-17T16:40:52.194Z,7.67
2018-08-17T16:43:22.707Z,7.60
2018-08-17T16:45:51.224Z,9.30
2018-08-17T16:48:19.836Z,10.07
2018-08-17T16:50:48.467Z,6.67
2018-08-17T16:53:17.026Z,11.70
2018-08-17T16:55:45.373Z,9.93
2018-08-17T16:58:13.740Z,8.90
2018-08-17T17:00:42.195Z,6.77
2018-08-17T17:03:10.501Z,6.10
2018-08-17T17:05:38.863Z,8.13
2018-08-17T17:08:07.464Z,8.63
2018-08-17T17:10:35.837Z,9.17
2018-08-17T17:13:04.193Z,6.03
2018-08-17T17:15:32.720Z,5.97
2018-08-17T17:18:06.328Z,5.87
2018-08-17T17:20:36.895Z,8.93
2018-08-17T17:23:07.034Z,6.90
2018-08-17T17:25:35.486Z,9.90
2018-08-17T17:28:03.824Z,5.13
2018-08-17T17:30:38.793Z,8.10
2018-08-17T17:33:07.252Z,6.70
2018-08-17T17:35:36.232Z,6.37
2018-08-17T17:38:04.855Z,4.63
2018-08-17T17:40:33.260Z,6.13
2018-08-17T17:43:01.825Z,5.30
2018-08-17T17:45:30.312Z,5.63
2018-08-17T17:47:59.536Z,18.70
2018-08-17T17:50:27.958Z,10.93
2018-08-17T17:52:56.391Z,12.03
2018-08-17T17:55:26.496Z,8.33
2018-08-17T17:57:54.820Z,5.57
2018-08-17T18:00:23.161Z,6.60
2018-08-17T18:02:51.606Z,6.93
2018-08-17T18:05:20.028Z,5.53
2018-08-17T18:07:49.544Z,4.93
2018-08-17T18:10:21.534Z,5.70
2018-08-17T18:12:50.288Z,5.60
2018-08-17T18:15:18.676Z,4.77
2018-08-17T18:17:47.091Z,6.87
2018-08-17T18:20:15.485Z,7.63
2018-08-17T18:22:43.833Z,5.10
2018-08-17T18:25:16.978Z,5.27
2018-08-17T18:27:45.652Z,7.43
2018-08-17T18:30:14.054Z,7.07
2018-08-17T18:32:42.398Z,4.60
2018-08-17T18:35:11.140Z,6.00
2018-08-17T18:37:39.546Z,6.27
2018-08-17T18:40:09.850Z,4.03
2018-08-17T18:42:38.299Z,5.50
2018-08-17T18:45:06.838Z,3.60
2018-08-17T18:47:35.349Z,4.40
2018-08-17T18:50:04.045Z,5.30
2018-08-17T18:52:32.876Z,8.43
2018-08-17T18:55:01.252Z,5.00
2018-08-17T18:57:29.473Z,5.10
2018-08-17T18:59:57.849Z,6.40
2018-08-17T19:02:26.229Z,6.43
2018-08-17T19:04:54.572Z,6.53
2018-08-17T19:07:23.116Z,4.60
2018-08-17T19:09:51.512Z,6.40
2018-08-17T19:12:20.018Z,7.70
2018-08-17T19:14:50.411Z,10.70
2018-08-17T19:17:24.030Z,7.07
2018-08-17T19:19:53.277Z,7.00
2018-08-17T19:22:21.986Z,5.80
2018-08-17T19:24:51.592Z,4.60
2018-08-17T19:27:37.360Z,6.13
2018-08-17T19:30:12.057Z,7.80
2018-08-17T19:32:40.685Z,5.70
2018-08-17T19:35:09.055Z,5.50
2018-08-17T19:37:39.839Z,5.73
2018-08-17T19:40:08.164Z,7.43
2018-08-17T19:42:36.658Z,8.50
2018-08-17T19:45:05.087Z,4.33
2018-08-17T19:47:33.585Z,6.50
2018-08-17T19:50:01.964Z,5.50
2018-08-17T19:52:30.458Z,6.03
2018-08-17T19:54:58.813Z,5.67
2018-08-17T19:57:27.235Z,7.53
2018-08-17T19:59:56.093Z,7.50
2018-08-17T20:02:24.429Z,8.03
2018-08-17T20:04:52.893Z,11.10
2018-08-17T20:07:21.257Z,7.87
2018-08-17T20:09:49.593Z,5.50
2018-08-17T20:12:17.928Z,8.03
2018-08-17T20:14:46.308Z,5.23
2018-08-17T20:17:14.704Z,7.30
2018-08-17T20:19:49.004Z,9.40
2018-08-17T20:22:20.468Z,7.00
2018-08-17T20:24:48.824Z,10.07
2018-08-17T20:27:17.904Z,5.63
2018-08-17T20:29:46.253Z,9.07
2018-08-17T20:32:14.721Z,6.20
2018-08-17T20:34:45.857Z,8.77
2018-08-17T20:37:15.441Z,7.37
2018-08-17T20:39:44.869Z,7.77
2018-08-17T20:42:13.420Z,7.87
2018-08-17T20:44:41.844Z,10.67
2018-08-17T20:47:11.004Z,11.57
2018-08-17T20:49:39.637Z,9.13
2018-08-17T20:52:08.188Z,10.97
2018-08-17T20:54:36.525Z,9.60
2018-08-17T20:57:04.909Z,8.93
2018-08-17T20:59:33.348Z,8.57
2018-08-17T21:02:01.891Z,9.20
2018-08-17T21:04:30.238Z,6.53
2018-08-17T21:06:58.684Z,9.07
2018-08-17T21:09:27.053Z,10.63
2018-08-17T21:11:55.624Z,7.83
2018-08-17T21:14:24.133Z,7.50
2018-08-17T21:16:52.681Z,6.80
2018-08-17T21:19:27.436Z,8.27
2018-08-17T21:21:55.909Z,10.17
2018-08-17T21:24:24.345Z,9.33
2018-08-17T21:26:52.701Z,8.37
2018-08-17T21:29:21.107Z,6.97
2018-08-17T21:31:50.845Z,7.47
2018-08-17T21:34:19.425Z,10.90
2018-08-17T21:36:47.777Z,9.33
2018-08-17T21:39:17.898Z,8.93
2018-08-17T21:41:47.668Z,10.07
2018-08-17T21:44:17.108Z,11.20
2018-08-17T21:46:54.611Z,13.90
2018-08-17T21:49:24.087Z,12.13
2018-08-17T21:51:56.857Z,9.73
2018-08-17T21:54:25.544Z,11.73
2018-08-17T21:56:54.520Z,7.70
2018-08-17T21:59:22.897Z,8.03
2018-08-17T22:01:51.272Z,9.40
2018-08-17T22:04:19.663Z,11.27
2018-08-17T22:06:47.997Z,10.90
2018-08-17T22:09:26.219Z,7.80
2018-08-17T22:11:54.538Z,10.43
2018-08-17T22:14:22.888Z,9.57
2018-08-17T22:16:51.197Z,8.17
2018-08-17T22:19:30.869Z,10.63
2018-08-17T22:21:59.228Z,13.50
2018-08-17T22:24:27.596Z,8.77
2018-08-17T22:26:55.906Z,8.23
2018-08-17T22:29:24.231Z,7.30
2018-08-17T22:31:52.684Z,8.53
2018-08-17T22:34:21.011Z,8.37
2018-08-17T22:36:49.365Z,9.70
2018-08-17T22:39:17.780Z,9.90
2018-08-17T22:41:46.205Z,8.57
2018-08-17T22:44:19.796Z,11.47
2018-08-17T22:46:58.048Z,8.73
2018-08-17T22:49:26.485Z,8.83
2018-08-17T22:51:54.832Z,10.33
2018-08-17T22:54:23.190Z,10.00
2018-08-17T22:56:51.556Z,9.87
2018-08-17T22:59:19.980Z,11.00
2018-08-17T23:01:48.340Z,16.30
2018-08-17T23:04:16.696Z,12.63
2018-08-17T23:06:45.116Z,8.80
2018-08-17T23:09:13.400Z,10.00
2018-08-17T23:11:41.756Z,7.70
2018-08-17T23:14:13.721Z,10.07
2018-08-17T23:16:42.935Z,9.67
2018-08-17T23:19:11.285Z,10.93
2018-08-17T23:21:39.865Z,10.33
2018-08-17T23:24:08.677Z,11.97
2018-08-17T23:26:37.045Z,9.50
2018-08-17T23:29:06.285Z,11.47
2018-08-17T23:31:34.652Z,11.30
2018-08-17T23:34:03.040Z,11.80
2018-08-17T23:36:31.441Z,9.97
2018-08-17T23:38:59.846Z,9.83
2018-08-17T23:41:28.145Z,12.00
2018-08-17T23:44:02.832Z,10.83
2018-08-17T23:46:31.211Z,9.90
2018-08-17T23:48:59.524Z,13.20
2018-08-17T23:51:27.994Z,11.97
2018-08-17T23:53:56.408Z,12.20
2018-08-17T23:56:24.788Z,13.23
2018-08-17T23:58:53.141Z,11.13
